Terminal Aerodrome Forecast
Issued by NWS Wakefield, VA

Home | Current Version | Previous Version | Text Only | Print | Product List | Glossary On
Versions: 1 2 3 4 5 6 7 8 9 10 11 12 13 14 15 16 17 18 19 20
000
FTUS41 KAKQ 161700
TAFRIC
TAF
KRIC 161729Z 1618/1718 01010G18KT P6SM SKC
     FM162100 03008KT P6SM SKC
     FM170000 06005KT P6SM SKC
     FM171200 07010KT P6SM SKC=

USA.gov is the U.S. government's official web portal to all federal, state and local government web resources and services.